sensor_id;sensor_type;location;lat;lon;timestamp;temperature;humidity
22787;DHT22;63134;52.020;4.714;2023-02-01T00:01:54;8.00;81.60
22787;DHT22;63134;52.020;4.714;2023-02-01T00:04:43;8.10;81.30
22787;DHT22;63134;52.020;4.714;2023-02-01T00:07:28;8.10;81.00
22787;DHT22;63134;52.020;4.714;2023-02-01T00:10:13;8.10;80.70
22787;DHT22;63134;52.020;4.714;2023-02-01T00:12:59;8.10;80.50
22787;DHT22;63134;52.020;4.714;2023-02-01T00:15:45;8.10;80.50
22787;DHT22;63134;52.020;4.714;2023-02-01T00:18:31;8.00;80.50
22787;DHT22;63134;52.020;4.714;2023-02-01T00:21:19;8.00;80.20
22787;DHT22;63134;52.020;4.714;2023-02-01T00:24:06;8.00;80.40
22787;DHT22;63134;52.020;4.714;2023-02-01T00:26:52;8.00;80.30
22787;DHT22;63134;52.020;4.714;2023-02-01T00:29:37;8.00;80.30
22787;DHT22;63134;52.020;4.714;2023-02-01T00:32:23;8.00;80.40
22787;DHT22;63134;52.020;4.714;2023-02-01T00:35:08;8.00;80.30
22787;DHT22;63134;52.020;4.714;2023-02-01T00:37:54;7.90;80.30
22787;DHT22;63134;52.020;4.714;2023-02-01T00:40:40;7.90;80.20
22787;DHT22;63134;52.020;4.714;2023-02-01T00:43:25;7.90;80.00
22787;DHT22;63134;52.020;4.714;2023-02-01T00:46:12;7.90;80.00
22787;DHT22;63134;52.020;4.714;2023-02-01T00:48:58;8.00;79.70
22787;DHT22;63134;52.020;4.714;2023-02-01T00:51:44;7.90;79.50
22787;DHT22;63134;52.020;4.714;2023-02-01T00:54:29;8.00;79.50
22787;DHT22;63134;52.020;4.714;2023-02-01T00:57:15;7.90;79.20
22787;DHT22;63134;52.020;4.714;2023-02-01T01:00:00;8.00;79.30
22787;DHT22;63134;52.020;4.714;2023-02-01T01:02:45;8.00;79.10
22787;DHT22;63134;52.020;4.714;2023-02-01T01:05:31;8.00;79.10
22787;DHT22;63134;52.020;4.714;2023-02-01T01:08:16;8.00;78.90
22787;DHT22;63134;52.020;4.714;2023-02-01T01:11:14;8.00;79.00
22787;DHT22;63134;52.020;4.714;2023-02-01T01:14:00;8.00;78.90
22787;DHT22;63134;52.020;4.714;2023-02-01T01:16:45;8.10;79.00
22787;DHT22;63134;52.020;4.714;2023-02-01T01:19:31;8.10;79.00
22787;DHT22;63134;52.020;4.714;2023-02-01T01:22:16;8.10;79.10
22787;DHT22;63134;52.020;4.714;2023-02-01T01:25:03;8.10;79.30
22787;DHT22;63134;52.020;4.714;2023-02-01T01:27:49;8.10;79.80
22787;DHT22;63134;52.020;4.714;2023-02-01T01:30:35;8.10;80.00
22787;DHT22;63134;52.020;4.714;2023-02-01T01:33:21;8.10;79.80
22787;DHT22;63134;52.020;4.714;2023-02-01T01:36:07;8.20;80.40
22787;DHT22;63134;52.020;4.714;2023-02-01T01:38:56;8.10;80.50
22787;DHT22;63134;52.020;4.714;2023-02-01T01:41:42;8.20;80.60
22787;DHT22;63134;52.020;4.714;2023-02-01T01:45:04;8.10;80.80
22787;DHT22;63134;52.020;4.714;2023-02-01T01:48:02;8.20;81.30
22787;DHT22;63134;52.020;4.714;2023-02-01T01:50:54;8.30;81.40
22787;DHT22;63134;52.020;4.714;2023-02-01T01:53:50;8.40;81.40
22787;DHT22;63134;52.020;4.714;2023-02-01T01:56:39;8.40;81.20
22787;DHT22;63134;52.020;4.714;2023-02-01T01:59:26;8.40;81.30
22787;DHT22;63134;52.020;4.714;2023-02-01T02:02:13;8.50;81.20
22787;DHT22;63134;52.020;4.714;2023-02-01T02:04:58;8.50;81.20
22787;DHT22;63134;52.020;4.714;2023-02-01T02:07:47;8.50;80.80
22787;DHT22;63134;52.020;4.714;2023-02-01T02:10:33;8.50;80.70
22787;DHT22;63134;52.020;4.714;2023-02-01T02:13:40;8.50;80.90
22787;DHT22;63134;52.020;4.714;2023-02-01T02:19:49;8.60;80.90
22787;DHT22;63134;52.020;4.714;2023-02-01T02:32:29;8.60;80.40
22787;DHT22;63134;52.020;4.714;2023-02-01T02:38:35;8.60;80.50
22787;DHT22;63134;52.020;4.714;2023-02-01T02:41:27;8.70;80.30
22787;DHT22;63134;52.020;4.714;2023-02-01T02:44:49;8.70;80.20
22787;DHT22;63134;52.020;4.714;2023-02-01T02:51:45;8.70;79.90
22787;DHT22;63134;52.020;4.714;2023-02-01T02:54:51;8.80;79.70
22787;DHT22;63134;52.020;4.714;2023-02-01T02:57:41;8.80;79.20
22787;DHT22;63134;52.020;4.714;2023-02-01T03:00:48;8.80;78.80
22787;DHT22;63134;52.020;4.714;2023-02-01T03:03:52;8.80;78.70
22787;DHT22;63134;52.020;4.714;2023-02-01T03:06:56;8.80;78.50
22787;DHT22;63134;52.020;4.714;2023-02-01T03:09:45;8.80;78.40
22787;DHT22;63134;52.020;4.714;2023-02-01T03:12:35;8.70;78.30
22787;DHT22;63134;52.020;4.714;2023-02-01T03:19:21;8.60;78.70
22787;DHT22;63134;52.020;4.714;2023-02-01T03:22:09;8.60;79.30
22787;DHT22;63134;52.020;4.714;2023-02-01T03:25:01;8.50;79.60
22787;DHT22;63134;52.020;4.714;2023-02-01T03:28:03;8.40;79.90
22787;DHT22;63134;52.020;4.714;2023-02-01T03:30:49;8.40;80.10
22787;DHT22;63134;52.020;4.714;2023-02-01T03:33:38;8.30;80.60
22787;DHT22;63134;52.020;4.714;2023-02-01T03:36:44;8.30;81.00
22787;DHT22;63134;52.020;4.714;2023-02-01T03:39:45;8.30;81.50
22787;DHT22;63134;52.020;4.714;2023-02-01T03:42:40;8.30;81.70
22787;DHT22;63134;52.020;4.714;2023-02-01T03:45:38;8.40;81.50
22787;DHT22;63134;52.020;4.714;2023-02-01T03:48:28;8.40;81.20
22787;DHT22;63134;52.020;4.714;2023-02-01T03:51:24;8.40;81.60
22787;DHT22;63134;52.020;4.714;2023-02-01T03:54:13;8.40;80.70
22787;DHT22;63134;52.020;4.714;2023-02-01T03:57:03;8.40;80.70
22787;DHT22;63134;52.020;4.714;2023-02-01T03:59:50;8.40;81.00
22787;DHT22;63134;52.020;4.714;2023-02-01T04:02:36;8.40;81.00
22787;DHT22;63134;52.020;4.714;2023-02-01T04:05:22;8.40;80.90
22787;DHT22;63134;52.020;4.714;2023-02-01T04:08:15;8.40;80.80
22787;DHT22;63134;52.020;4.714;2023-02-01T04:11:02;8.40;80.60
22787;DHT22;63134;52.020;4.714;2023-02-01T04:13:48;8.50;80.60
22787;DHT22;63134;52.020;4.714;2023-02-01T04:16:34;8.50;80.40
22787;DHT22;63134;52.020;4.714;2023-02-01T04:19:20;8.60;80.40
22787;DHT22;63134;52.020;4.714;2023-02-01T04:22:05;8.60;80.20
22787;DHT22;63134;52.020;4.714;2023-02-01T04:24:51;8.70;80.00
22787;DHT22;63134;52.020;4.714;2023-02-01T04:27:36;8.70;79.90
22787;DHT22;63134;52.020;4.714;2023-02-01T04:30:22;8.70;79.80
22787;DHT22;63134;52.020;4.714;2023-02-01T04:33:13;8.80;79.40
22787;DHT22;63134;52.020;4.714;2023-02-01T04:36:03;8.70;79.10
22787;DHT22;63134;52.020;4.714;2023-02-01T04:38:50;8.70;78.90
22787;DHT22;63134;52.020;4.714;2023-02-01T04:41:35;8.60;79.00
22787;DHT22;63134;52.020;4.714;2023-02-01T04:44:21;8.50;79.20
22787;DHT22;63134;52.020;4.714;2023-02-01T04:47:06;8.40;79.50
22787;DHT22;63134;52.020;4.714;2023-02-01T04:49:52;8.40;80.00
22787;DHT22;63134;52.020;4.714;2023-02-01T04:52:38;8.40;80.40
22787;DHT22;63134;52.020;4.714;2023-02-01T04:55:29;8.30;80.50
22787;DHT22;63134;52.020;4.714;2023-02-01T04:58:15;8.30;80.60
22787;DHT22;63134;52.020;4.714;2023-02-01T05:01:06;8.20;80.60
22787;DHT22;63134;52.020;4.714;2023-02-01T05:03:52;8.20;81.20
22787;DHT22;63134;52.020;4.714;2023-02-01T05:06:38;8.20;81.60
22787;DHT22;63134;52.020;4.714;2023-02-01T05:09:23;8.20;81.50
22787;DHT22;63134;52.020;4.714;2023-02-01T05:12:16;8.10;81.60
22787;DHT22;63134;52.020;4.714;2023-02-01T05:15:20;8.10;81.70
22787;DHT22;63134;52.020;4.714;2023-02-01T05:18:09;8.00;82.00
22787;DHT22;63134;52.020;4.714;2023-02-01T05:20:55;8.00;82.50
22787;DHT22;63134;52.020;4.714;2023-02-01T05:23:43;7.90;82.30
22787;DHT22;63134;52.020;4.714;2023-02-01T05:26:48;7.90;82.80
22787;DHT22;63134;52.020;4.714;2023-02-01T05:29:34;7.90;82.80
22787;DHT22;63134;52.020;4.714;2023-02-01T05:32:20;7.90;83.20
22787;DHT22;63134;52.020;4.714;2023-02-01T05:35:08;7.90;83.60
22787;DHT22;63134;52.020;4.714;2023-02-01T05:37:53;7.90;83.70
22787;DHT22;63134;52.020;4.714;2023-02-01T05:40:43;7.90;83.80
22787;DHT22;63134;52.020;4.714;2023-02-01T05:43:34;7.90;83.70
22787;DHT22;63134;52.020;4.714;2023-02-01T05:46:22;7.90;83.70
22787;DHT22;63134;52.020;4.714;2023-02-01T05:49:08;8.00;83.80
22787;DHT22;63134;52.020;4.714;2023-02-01T05:51:54;8.00;83.80
22787;DHT22;63134;52.020;4.714;2023-02-01T05:54:39;8.00;83.70
22787;DHT22;63134;52.020;4.714;2023-02-01T05:57:25;8.00;83.60
22787;DHT22;63134;52.020;4.714;2023-02-01T06:00:11;8.00;83.50
22787;DHT22;63134;52.020;4.714;2023-02-01T06:02:59;8.00;83.40
22787;DHT22;63134;52.020;4.714;2023-02-01T06:05:45;8.00;83.50
22787;DHT22;63134;52.020;4.714;2023-02-01T06:08:37;8.00;83.40
22787;DHT22;63134;52.020;4.714;2023-02-01T06:11:28;8.00;83.80
22787;DHT22;63134;52.020;4.714;2023-02-01T06:14:17;8.00;83.80
22787;DHT22;63134;52.020;4.714;2023-02-01T06:17:03;8.00;83.90
22787;DHT22;63134;52.020;4.714;2023-02-01T06:19:48;8.00;83.80
22787;DHT22;63134;52.020;4.714;2023-02-01T06:22:37;8.00;83.90
22787;DHT22;63134;52.020;4.714;2023-02-01T06:25:22;8.10;84.20
22787;DHT22;63134;52.020;4.714;2023-02-01T06:28:08;8.20;84.20
22787;DHT22;63134;52.020;4.714;2023-02-01T06:30:53;8.20;83.80
22787;DHT22;63134;52.020;4.714;2023-02-01T06:33:39;8.30;83.80
22787;DHT22;63134;52.020;4.714;2023-02-01T06:36:29;8.30;83.50
22787;DHT22;63134;52.020;4.714;2023-02-01T06:39:14;8.30;83.50
22787;DHT22;63134;52.020;4.714;2023-02-01T06:42:02;8.30;83.50
22787;DHT22;63134;52.020;4.714;2023-02-01T06:44:47;8.30;83.30
22787;DHT22;63134;52.020;4.714;2023-02-01T06:47:33;8.30;83.20
22787;DHT22;63134;52.020;4.714;2023-02-01T06:50:18;8.30;83.10
22787;DHT22;63134;52.020;4.714;2023-02-01T06:53:04;8.30;82.90
22787;DHT22;63134;52.020;4.714;2023-02-01T06:55:58;8.30;82.80
22787;DHT22;63134;52.020;4.714;2023-02-01T06:58:50;8.20;82.70
22787;DHT22;63134;52.020;4.714;2023-02-01T07:01:36;8.20;82.80
22787;DHT22;63134;52.020;4.714;2023-02-01T07:04:22;8.20;82.90
22787;DHT22;63134;52.020;4.714;2023-02-01T07:07:10;8.20;82.90
22787;DHT22;63134;52.020;4.714;2023-02-01T07:09:56;8.10;83.00
22787;DHT22;63134;52.020;4.714;2023-02-01T07:12:46;8.20;82.90
22787;DHT22;63134;52.020;4.714;2023-02-01T07:15:31;8.10;82.80
22787;DHT22;63134;52.020;4.714;2023-02-01T07:18:17;8.10;83.00
22787;DHT22;63134;52.020;4.714;2023-02-01T07:21:05;8.10;83.10
22787;DHT22;63134;52.020;4.714;2023-02-01T07:23:51;8.20;83.20
22787;DHT22;63134;52.020;4.714;2023-02-01T07:26:37;8.10;83.20
22787;DHT22;63134;52.020;4.714;2023-02-01T07:29:23;8.20;83.30
22787;DHT22;63134;52.020;4.714;2023-02-01T07:32:10;8.20;83.20
22787;DHT22;63134;52.020;4.714;2023-02-01T07:34:56;8.20;83.20
22787;DHT22;63134;52.020;4.714;2023-02-01T07:37:42;8.30;83.40
22787;DHT22;63134;52.020;4.714;2023-02-01T07:40:28;8.20;83.20
22787;DHT22;63134;52.020;4.714;2023-02-01T07:43:15;8.30;83.20
22787;DHT22;63134;52.020;4.714;2023-02-01T07:46:05;8.30;83.00
22787;DHT22;63134;52.020;4.714;2023-02-01T07:48:50;8.20;82.80
22787;DHT22;63134;52.020;4.714;2023-02-01T07:51:36;8.20;83.00
22787;DHT22;63134;52.020;4.714;2023-02-01T07:54:21;8.20;83.20
22787;DHT22;63134;52.020;4.714;2023-02-01T07:57:09;8.20;83.20
22787;DHT22;63134;52.020;4.714;2023-02-01T07:59:56;8.30;83.30
22787;DHT22;63134;52.020;4.714;2023-02-01T08:03:01;8.30;83.50
22787;DHT22;63134;52.020;4.714;2023-02-01T08:05:48;8.30;83.60
22787;DHT22;63134;52.020;4.714;2023-02-01T08:08:38;8.30;83.60
22787;DHT22;63134;52.020;4.714;2023-02-01T08:11:25;8.40;83.50
22787;DHT22;63134;52.020;4.714;2023-02-01T08:14:11;8.40;83.70
22787;DHT22;63134;52.020;4.714;2023-02-01T08:16:56;8.40;83.60
22787;DHT22;63134;52.020;4.714;2023-02-01T08:19:41;8.40;83.30
22787;DHT22;63134;52.020;4.714;2023-02-01T08:22:31;8.40;83.20
22787;DHT22;63134;52.020;4.714;2023-02-01T08:25:17;8.50;83.10
22787;DHT22;63134;52.020;4.714;2023-02-01T08:28:03;8.50;83.10
22787;DHT22;63134;52.020;4.714;2023-02-01T08:30:48;8.60;82.90
22787;DHT22;63134;52.020;4.714;2023-02-01T08:33:34;8.70;82.70
22787;DHT22;63134;52.020;4.714;2023-02-01T08:36:27;8.80;82.70
22787;DHT22;63134;52.020;4.714;2023-02-01T08:39:13;8.80;82.30
22787;DHT22;63134;52.020;4.714;2023-02-01T08:41:58;8.90;82.20
22787;DHT22;63134;52.020;4.714;2023-02-01T08:45:06;8.90;82.10
22787;DHT22;63134;52.020;4.714;2023-02-01T08:47:53;9.00;81.80
22787;DHT22;63134;52.020;4.714;2023-02-01T08:50:38;9.10;81.50
22787;DHT22;63134;52.020;4.714;2023-02-01T08:53:24;9.10;81.30
22787;DHT22;63134;52.020;4.714;2023-02-01T08:56:11;9.10;81.10
22787;DHT22;63134;52.020;4.714;2023-02-01T08:58:57;9.20;80.50
22787;DHT22;63134;52.020;4.714;2023-02-01T09:01:43;9.20;80.50
22787;DHT22;63134;52.020;4.714;2023-02-01T09:04:28;9.30;80.20
22787;DHT22;63134;52.020;4.714;2023-02-01T09:07:14;9.30;80.10
22787;DHT22;63134;52.020;4.714;2023-02-01T09:10:00;9.40;80.10
22787;DHT22;63134;52.020;4.714;2023-02-01T09:12:46;9.40;80.00
22787;DHT22;63134;52.020;4.714;2023-02-01T09:15:31;9.50;80.00
22787;DHT22;63134;52.020;4.714;2023-02-01T09:18:18;9.60;79.70
22787;DHT22;63134;52.020;4.714;2023-02-01T09:21:05;9.60;79.40
22787;DHT22;63134;52.020;4.714;2023-02-01T09:23:51;9.80;79.20
22787;DHT22;63134;52.020;4.714;2023-02-01T09:26:37;9.80;78.80
22787;DHT22;63134;52.020;4.714;2023-02-01T09:29:23;9.90;78.70
22787;DHT22;63134;52.020;4.714;2023-02-01T09:32:11;9.90;78.30
22787;DHT22;63134;52.020;4.714;2023-02-01T09:34:56;9.90;77.90
22787;DHT22;63134;52.020;4.714;2023-02-01T09:37:45;9.90;77.90
22787;DHT22;63134;52.020;4.714;2023-02-01T09:40:30;10.00;77.70
22787;DHT22;63134;52.020;4.714;2023-02-01T09:43:32;9.90;76.70
22787;DHT22;63134;52.020;4.714;2023-02-01T09:46:36;9.90;76.60
22787;DHT22;63134;52.020;4.714;2023-02-01T09:49:30;10.00;76.70
22787;DHT22;63134;52.020;4.714;2023-02-01T09:52:19;10.00;76.30
22787;DHT22;63134;52.020;4.714;2023-02-01T09:55:18;10.00;76.30
22787;DHT22;63134;52.020;4.714;2023-02-01T10:01:19;9.90;76.00
22787;DHT22;63134;52.020;4.714;2023-02-01T10:04:08;9.90;76.00
22787;DHT22;63134;52.020;4.714;2023-02-01T10:07:06;9.80;76.60
22787;DHT22;63134;52.020;4.714;2023-02-01T10:22:44;9.80;77.00
22787;DHT22;63134;52.020;4.714;2023-02-01T10:28:41;9.70;76.90
22787;DHT22;63134;52.020;4.714;2023-02-01T10:31:34;9.70;77.00
22787;DHT22;63134;52.020;4.714;2023-02-01T10:34:26;9.80;77.20
22787;DHT22;63134;52.020;4.714;2023-02-01T10:37:27;9.80;77.20
22787;DHT22;63134;52.020;4.714;2023-02-01T10:40:26;9.90;77.00
22787;DHT22;63134;52.020;4.714;2023-02-01T10:43:12;9.90;77.00
22787;DHT22;63134;52.020;4.714;2023-02-01T10:45:57;10.00;77.20
22787;DHT22;63134;52.020;4.714;2023-02-01T10:48:43;10.10;76.70
22787;DHT22;63134;52.020;4.714;2023-02-01T10:52:10;10.10;76.60
22787;DHT22;63134;52.020;4.714;2023-02-01T10:54:46;10.20;76.50
22787;DHT22;63134;52.020;4.714;2023-02-01T10:57:31;10.20;76.10
22787;DHT22;63134;52.020;4.714;2023-02-01T11:00:21;10.20;76.50
22787;DHT22;63134;52.020;4.714;2023-02-01T11:06:31;10.20;75.80
22787;DHT22;63134;52.020;4.714;2023-02-01T11:09:24;10.10;75.70
22787;DHT22;63134;52.020;4.714;2023-02-01T11:12:23;10.10;76.00
22787;DHT22;63134;52.020;4.714;2023-02-01T11:15:21;10.10;75.90
22787;DHT22;63134;52.020;4.714;2023-02-01T11:18:29;10.10;76.00
22787;DHT22;63134;52.020;4.714;2023-02-01T11:21:14;10.10;76.00
22787;DHT22;63134;52.020;4.714;2023-02-01T11:24:02;10.10;76.10
22787;DHT22;63134;52.020;4.714;2023-02-01T11:26:54;10.00;76.20
22787;DHT22;63134;52.020;4.714;2023-02-01T11:29:43;10.10;76.50
22787;DHT22;63134;52.020;4.714;2023-02-01T11:32:31;10.20;76.20
22787;DHT22;63134;52.020;4.714;2023-02-01T11:35:27;10.20;76.10
22787;DHT22;63134;52.020;4.714;2023-02-01T11:38:31;10.30;76.10
22787;DHT22;63134;52.020;4.714;2023-02-01T11:41:26;10.30;76.30
22787;DHT22;63134;52.020;4.714;2023-02-01T11:44:23;10.40;76.10
22787;DHT22;63134;52.020;4.714;2023-02-01T11:47:21;10.50;75.20
22787;DHT22;63134;52.020;4.714;2023-02-01T11:50:17;10.50;75.20
22787;DHT22;63134;52.020;4.714;2023-02-01T11:56:09;10.60;74.30
22787;DHT22;63134;52.020;4.714;2023-02-01T12:02:16;10.70;73.90
22787;DHT22;63134;52.020;4.714;2023-02-01T12:14:25;10.50;74.30
22787;DHT22;63134;52.020;4.714;2023-02-01T12:23:29;10.40;75.30
22787;DHT22;63134;52.020;4.714;2023-02-01T12:26:44;10.40;75.40
22787;DHT22;63134;52.020;4.714;2023-02-01T12:29:49;10.50;75.50
22787;DHT22;63134;52.020;4.714;2023-02-01T12:42:37;11.00;73.50
22787;DHT22;63134;52.020;4.714;2023-02-01T12:45:40;11.10;73.10
22787;DHT22;63134;52.020;4.714;2023-02-01T12:48:34;11.40;72.80
22787;DHT22;63134;52.020;4.714;2023-02-01T12:51:28;11.40;71.70
22787;DHT22;63134;52.020;4.714;2023-02-01T12:54:37;11.40;71.90
22787;DHT22;63134;52.020;4.714;2023-02-01T12:57:31;11.50;71.30
22787;DHT22;63134;52.020;4.714;2023-02-01T13:00:31;12.00;70.50
22787;DHT22;63134;52.020;4.714;2023-02-01T13:06:57;12.30;68.20
22787;DHT22;63134;52.020;4.714;2023-02-01T13:10:19;11.90;68.80
22787;DHT22;63134;52.020;4.714;2023-02-01T13:13:17;11.70;70.10
22787;DHT22;63134;52.020;4.714;2023-02-01T13:16:23;11.80;70.60
22787;DHT22;63134;52.020;4.714;2023-02-01T13:22:26;12.00;69.00
22787;DHT22;63134;52.020;4.714;2023-02-01T13:25:20;12.00;69.30
22787;DHT22;63134;52.020;4.714;2023-02-01T13:35:47;11.40;71.00
22787;DHT22;63134;52.020;4.714;2023-02-01T13:38:19;11.20;72.60
22787;DHT22;63134;52.020;4.714;2023-02-01T13:41:31;11.10;73.20
22787;DHT22;63134;52.020;4.714;2023-02-01T13:44:32;10.80;74.10
22787;DHT22;63134;52.020;4.714;2023-02-01T13:47:31;10.80;74.50
22787;DHT22;63134;52.020;4.714;2023-02-01T13:56:00;10.70;75.60
22787;DHT22;63134;52.020;4.714;2023-02-01T13:58:48;10.70;75.70
22787;DHT22;63134;52.020;4.714;2023-02-01T14:01:34;10.70;75.70
22787;DHT22;63134;52.020;4.714;2023-02-01T14:04:47;10.70;76.20
22787;DHT22;63134;52.020;4.714;2023-02-01T14:07:33;10.70;76.30
22787;DHT22;63134;52.020;4.714;2023-02-01T14:10:59;10.60;76.70
22787;DHT22;63134;52.020;4.714;2023-02-01T14:13:45;10.60;76.80
22787;DHT22;63134;52.020;4.714;2023-02-01T14:16:30;10.60;77.00
22787;DHT22;63134;52.020;4.714;2023-02-01T14:19:21;10.60;76.90
22787;DHT22;63134;52.020;4.714;2023-02-01T14:25:17;10.70;76.80
22787;DHT22;63134;52.020;4.714;2023-02-01T14:28:24;10.70;76.70
22787;DHT22;63134;52.020;4.714;2023-02-01T14:37:36;10.70;77.20
22787;DHT22;63134;52.020;4.714;2023-02-01T14:40:27;10.60;77.60
22787;DHT22;63134;52.020;4.714;2023-02-01T14:43:13;10.60;77.90
22787;DHT22;63134;52.020;4.714;2023-02-01T14:46:17;10.50;78.10
22787;DHT22;63134;52.020;4.714;2023-02-01T14:49:05;10.60;78.30
22787;DHT22;63134;52.020;4.714;2023-02-01T14:51:52;10.60;78.50
22787;DHT22;63134;52.020;4.714;2023-02-01T14:54:40;10.60;78.50
22787;DHT22;63134;52.020;4.714;2023-02-01T14:57:28;10.60;78.50
22787;DHT22;63134;52.020;4.714;2023-02-01T15:00:28;10.60;78.80
22787;DHT22;63134;52.020;4.714;2023-02-01T15:06:54;10.60;79.00
22787;DHT22;63134;52.020;4.714;2023-02-01T15:09:54;10.50;79.20
22787;DHT22;63134;52.020;4.714;2023-02-01T15:12:45;10.50;79.40
22787;DHT22;63134;52.020;4.714;2023-02-01T15:15:33;10.50;79.60
22787;DHT22;63134;52.020;4.714;2023-02-01T15:18:21;10.50;79.60
22787;DHT22;63134;52.020;4.714;2023-02-01T15:21:20;10.50;79.70
22787;DHT22;63134;52.020;4.714;2023-02-01T15:24:21;10.50;80.00
22787;DHT22;63134;52.020;4.714;2023-02-01T15:27:10;10.40;80.20
22787;DHT22;63134;52.020;4.714;2023-02-01T15:30:12;10.40;80.20
22787;DHT22;63134;52.020;4.714;2023-02-01T15:36:16;10.40;80.40
22787;DHT22;63134;52.020;4.714;2023-02-01T15:39:21;10.40;80.40
22787;DHT22;63134;52.020;4.714;2023-02-01T15:42:12;10.40;80.40
22787;DHT22;63134;52.020;4.714;2023-02-01T15:45:04;10.40;80.60
22787;DHT22;63134;52.020;4.714;2023-02-01T15:47:51;10.40;80.50
22787;DHT22;63134;52.020;4.714;2023-02-01T15:50:39;10.30;80.40
22787;DHT22;63134;52.020;4.714;2023-02-01T15:53:26;10.30;80.30
22787;DHT22;63134;52.020;4.714;2023-02-01T15:56:28;10.30;80.40
22787;DHT22;63134;52.020;4.714;2023-02-01T15:59:17;10.30;80.40
22787;DHT22;63134;52.020;4.714;2023-02-01T16:02:04;10.30;80.50
22787;DHT22;63134;52.020;4.714;2023-02-01T16:04:49;10.30;80.90
22787;DHT22;63134;52.020;4.714;2023-02-01T16:07:36;10.30;80.40
22787;DHT22;63134;52.020;4.714;2023-02-01T16:10:26;10.30;80.30
22787;DHT22;63134;52.020;4.714;2023-02-01T16:13:14;10.30;80.20
22787;DHT22;63134;52.020;4.714;2023-02-01T16:16:00;10.40;79.90
22787;DHT22;63134;52.020;4.714;2023-02-01T16:18:45;10.40;79.80
22787;DHT22;63134;52.020;4.714;2023-02-01T16:21:31;10.40;79.80
22787;DHT22;63134;52.020;4.714;2023-02-01T16:24:16;10.40;79.80
22787;DHT22;63134;52.020;4.714;2023-02-01T16:27:02;10.40;79.80
22787;DHT22;63134;52.020;4.714;2023-02-01T16:29:48;10.40;79.70
22787;DHT22;63134;52.020;4.714;2023-02-01T16:32:35;10.40;79.70
22787;DHT22;63134;52.020;4.714;2023-02-01T16:35:26;10.40;79.70
22787;DHT22;63134;52.020;4.714;2023-02-01T16:38:13;10.40;79.80
22787;DHT22;63134;52.020;4.714;2023-02-01T16:40:59;10.40;79.80
22787;DHT22;63134;52.020;4.714;2023-02-01T16:43:45;10.50;80.10
22787;DHT22;63134;52.020;4.714;2023-02-01T16:46:39;10.50;80.10
22787;DHT22;63134;52.020;4.714;2023-02-01T16:49:25;10.50;80.20
22787;DHT22;63134;52.020;4.714;2023-02-01T16:52:17;10.50;80.20
22787;DHT22;63134;52.020;4.714;2023-02-01T16:55:11;10.50;80.20
22787;DHT22;63134;52.020;4.714;2023-02-01T16:57:57;10.50;80.40
22787;DHT22;63134;52.020;4.714;2023-02-01T17:00:43;10.50;80.30
22787;DHT22;63134;52.020;4.714;2023-02-01T17:03:31;10.50;80.50
22787;DHT22;63134;52.020;4.714;2023-02-01T17:06:22;10.50;80.70
22787;DHT22;63134;52.020;4.714;2023-02-01T17:09:09;10.50;80.90
22787;DHT22;63134;52.020;4.714;2023-02-01T17:11:54;10.50;80.90
22787;DHT22;63134;52.020;4.714;2023-02-01T17:14:40;10.50;81.20
22787;DHT22;63134;52.020;4.714;2023-02-01T17:17:34;10.50;81.30
22787;DHT22;63134;52.020;4.714;2023-02-01T17:20:24;10.50;81.20
22787;DHT22;63134;52.020;4.714;2023-02-01T17:23:11;10.50;81.50
22787;DHT22;63134;52.020;4.714;2023-02-01T17:25:57;10.50;81.70
22787;DHT22;63134;52.020;4.714;2023-02-01T17:28:42;10.50;81.70
22787;DHT22;63134;52.020;4.714;2023-02-01T17:31:28;10.40;81.90
22787;DHT22;63134;52.020;4.714;2023-02-01T17:34:15;10.40;82.10
22787;DHT22;63134;52.020;4.714;2023-02-01T17:37:01;10.30;82.30
22787;DHT22;63134;52.020;4.714;2023-02-01T17:39:47;10.30;82.30
22787;DHT22;63134;52.020;4.714;2023-02-01T17:42:42;10.30;82.60
22787;DHT22;63134;52.020;4.714;2023-02-01T17:45:36;10.30;82.70
22787;DHT22;63134;52.020;4.714;2023-02-01T17:48:22;10.30;83.00
22787;DHT22;63134;52.020;4.714;2023-02-01T17:51:16;10.20;83.00
22787;DHT22;63134;52.020;4.714;2023-02-01T17:54:01;10.20;83.20
22787;DHT22;63134;52.020;4.714;2023-02-01T17:56:48;10.20;83.40
22787;DHT22;63134;52.020;4.714;2023-02-01T17:59:34;10.20;84.40
22787;DHT22;63134;52.020;4.714;2023-02-01T18:02:21;10.20;83.50
22787;DHT22;63134;52.020;4.714;2023-02-01T18:08:05;10.20;83.70
22787;DHT22;63134;52.020;4.714;2023-02-01T18:10:52;10.20;83.70
22787;DHT22;63134;52.020;4.714;2023-02-01T18:13:38;10.20;83.90
22787;DHT22;63134;52.020;4.714;2023-02-01T18:16:31;10.20;83.90
22787;DHT22;63134;52.020;4.714;2023-02-01T18:19:20;10.20;83.90
22787;DHT22;63134;52.020;4.714;2023-02-01T18:22:05;10.20;83.70
22787;DHT22;63134;52.020;4.714;2023-02-01T18:24:53;10.20;83.60
22787;DHT22;63134;52.020;4.714;2023-02-01T18:27:41;10.20;83.40
22787;DHT22;63134;52.020;4.714;2023-02-01T18:30:32;10.30;84.20
22787;DHT22;63134;52.020;4.714;2023-02-01T18:33:21;10.30;83.50
22787;DHT22;63134;52.020;4.714;2023-02-01T18:36:11;10.30;83.60
22787;DHT22;63134;52.020;4.714;2023-02-01T18:38:56;10.30;83.60
22787;DHT22;63134;52.020;4.714;2023-02-01T18:41:43;10.20;83.60
22787;DHT22;63134;52.020;4.714;2023-02-01T18:44:32;10.30;83.70
22787;DHT22;63134;52.020;4.714;2023-02-01T18:47:21;10.30;83.40
22787;DHT22;63134;52.020;4.714;2023-02-01T18:50:07;10.30;83.20
22787;DHT22;63134;52.020;4.714;2023-02-01T18:52:56;10.30;83.20
22787;DHT22;63134;52.020;4.714;2023-02-01T18:55:42;10.30;83.30
22787;DHT22;63134;52.020;4.714;2023-02-01T18:58:28;10.30;83.20
22787;DHT22;63134;52.020;4.714;2023-02-01T19:01:16;10.30;83.20
22787;DHT22;63134;52.020;4.714;2023-02-01T19:04:03;10.30;83.10
22787;DHT22;63134;52.020;4.714;2023-02-01T19:07:02;10.30;83.30
22787;DHT22;63134;52.020;4.714;2023-02-01T19:09:48;10.30;83.20
22787;DHT22;63134;52.020;4.714;2023-02-01T19:12:33;10.30;83.30
22787;DHT22;63134;52.020;4.714;2023-02-01T19:15:29;10.30;83.40
22787;DHT22;63134;52.020;4.714;2023-02-01T19:18:14;10.30;83.60
22787;DHT22;63134;52.020;4.714;2023-02-01T19:21:09;10.30;83.60
22787;DHT22;63134;52.020;4.714;2023-02-01T19:23:54;10.30;83.70
22787;DHT22;63134;52.020;4.714;2023-02-01T19:26:41;10.30;83.70
22787;DHT22;63134;52.020;4.714;2023-02-01T19:29:27;10.20;83.90
22787;DHT22;63134;52.020;4.714;2023-02-01T19:32:13;10.30;84.10
22787;DHT22;63134;52.020;4.714;2023-02-01T19:34:58;10.30;84.20
22787;DHT22;63134;52.020;4.714;2023-02-01T19:37:47;10.30;84.30
22787;DHT22;63134;52.020;4.714;2023-02-01T19:40:33;10.30;84.40
22787;DHT22;63134;52.020;4.714;2023-02-01T19:43:19;10.30;84.30
22787;DHT22;63134;52.020;4.714;2023-02-01T19:46:04;10.30;84.20
22787;DHT22;63134;52.020;4.714;2023-02-01T19:48:50;10.30;84.70
22787;DHT22;63134;52.020;4.714;2023-02-01T19:51:36;10.30;84.00
22787;DHT22;63134;52.020;4.714;2023-02-01T19:54:23;10.30;84.00
22787;DHT22;63134;52.020;4.714;2023-02-01T19:57:08;10.30;83.90
22787;DHT22;63134;52.020;4.714;2023-02-01T19:59:54;10.30;83.70
22787;DHT22;63134;52.020;4.714;2023-02-01T20:02:39;10.30;83.70